sensor_id;sensor_type;location;lat;lon;timestamp;P1;durP1;ratioP1;P2;durP2;ratioP2
35745;SDS011;21870;42.812;74.628;2022-12-24T00:00:56;136.48;;;73.03;;
35745;SDS011;21870;42.812;74.628;2022-12-24T00:03:22;128.65;;;69.18;;
35745;SDS011;21870;42.812;74.628;2022-12-24T00:05:48;128.30;;;70.03;;
35745;SDS011;21870;42.812;74.628;2022-12-24T00:08:15;133.68;;;68.18;;
35745;SDS011;21870;42.812;74.628;2022-12-24T00:10:41;117.78;;;63.08;;
35745;SDS011;21870;42.812;74.628;2022-12-24T00:13:07;111.45;;;62.05;;
35745;SDS011;21870;42.812;74.628;2022-12-24T00:15:33;117.82;;;63.92;;
35745;SDS011;21870;42.812;74.628;2022-12-24T00:18:00;127.75;;;68.65;;
35745;SDS011;21870;42.812;74.628;2022-12-24T00:20:26;131.00;;;69.43;;
35745;SDS011;21870;42.812;74.628;2022-12-24T00:22:52;121.05;;;66.38;;
35745;SDS011;21870;42.812;74.628;2022-12-24T00:25:18;117.78;;;68.40;;
35745;SDS011;21870;42.812;74.628;2022-12-24T00:27:44;113.85;;;65.40;;
35745;SDS011;21870;42.812;74.628;2022-12-24T00:30:11;103.18;;;60.35;;
35745;SDS011;21870;42.812;74.628;2022-12-24T00:32:37;119.97;;;61.90;;
35745;SDS011;21870;42.812;74.628;2022-12-24T00:35:03;118.88;;;64.28;;
35745;SDS011;21870;42.812;74.628;2022-12-24T00:37:29;120.05;;;63.13;;
35745;SDS011;21870;42.812;74.628;2022-12-24T00:39:55;127.03;;;61.95;;
35745;SDS011;21870;42.812;74.628;2022-12-24T00:42:21;133.85;;;74.10;;
35745;SDS011;21870;42.812;74.628;2022-12-24T00:44:47;117.55;;;64.53;;
35745;SDS011;21870;42.812;74.628;2022-12-24T00:47:13;126.10;;;67.38;;
35745;SDS011;21870;42.812;74.628;2022-12-24T00:49:39;113.80;;;64.65;;
35745;SDS011;21870;42.812;74.628;2022-12-24T00:52:05;131.10;;;69.30;;
35745;SDS011;21870;42.812;74.628;2022-12-24T00:54:31;122.90;;;72.70;;
35745;SDS011;21870;42.812;74.628;2022-12-24T00:56:57;136.90;;;72.25;;
35745;SDS011;21870;42.812;74.628;2022-12-24T00:59:23;143.50;;;79.38;;
35745;SDS011;21870;42.812;74.628;2022-12-24T01:01:50;157.73;;;82.18;;
35745;SDS011;21870;42.812;74.628;2022-12-24T01:04:16;151.82;;;85.88;;
35745;SDS011;21870;42.812;74.628;2022-12-24T01:07:00;148.70;;;83.05;;
35745;SDS011;21870;42.812;74.628;2022-12-24T01:09:27;134.45;;;76.30;;
35745;SDS011;21870;42.812;74.628;2022-12-24T01:11:53;123.38;;;68.65;;
35745;SDS011;21870;42.812;74.628;2022-12-24T01:14:19;132.88;;;70.70;;
35745;SDS011;21870;42.812;74.628;2022-12-24T01:16:45;115.63;;;66.03;;
35745;SDS011;21870;42.812;74.628;2022-12-24T01:19:11;120.65;;;68.40;;
35745;SDS011;21870;42.812;74.628;2022-12-24T01:21:37;174.73;;;71.75;;
35745;SDS011;21870;42.812;74.628;2022-12-24T01:24:03;145.00;;;76.78;;
35745;SDS011;21870;42.812;74.628;2022-12-24T01:26:29;134.00;;;72.57;;
35745;SDS011;21870;42.812;74.628;2022-12-24T01:28:55;132.18;;;70.82;;
35745;SDS011;21870;42.812;74.628;2022-12-24T01:31:22;123.18;;;69.03;;
35745;SDS011;21870;42.812;74.628;2022-12-24T01:33:48;129.85;;;65.88;;
35745;SDS011;21870;42.812;74.628;2022-12-24T01:36:14;120.40;;;67.15;;
35745;SDS011;21870;42.812;74.628;2022-12-24T01:38:40;103.50;;;56.38;;
35745;SDS011;21870;42.812;74.628;2022-12-24T01:41:12;115.05;;;59.65;;
35745;SDS011;21870;42.812;74.628;2022-12-24T01:44:14;119.68;;;64.25;;
35745;SDS011;21870;42.812;74.628;2022-12-24T01:46:51;107.15;;;58.58;;
35745;SDS011;21870;42.812;74.628;2022-12-24T01:49:36;113.07;;;57.95;;
35745;SDS011;21870;42.812;74.628;2022-12-24T01:52:12;117.88;;;64.07;;
35745;SDS011;21870;42.812;74.628;2022-12-24T01:54:49;96.25;;;57.70;;
35745;SDS011;21870;42.812;74.628;2022-12-24T01:57:20;110.88;;;61.72;;
35745;SDS011;21870;42.812;74.628;2022-12-24T01:59:54;110.97;;;59.15;;
35745;SDS011;21870;42.812;74.628;2022-12-24T02:02:23;114.20;;;64.93;;
35745;SDS011;21870;42.812;74.628;2022-12-24T02:07:28;107.05;;;56.45;;
35745;SDS011;21870;42.812;74.628;2022-12-24T02:09:58;79.53;;;45.58;;
35745;SDS011;21870;42.812;74.628;2022-12-24T02:12:26;74.00;;;43.28;;
35745;SDS011;21870;42.812;74.628;2022-12-24T02:14:55;100.28;;;50.95;;
35745;SDS011;21870;42.812;74.628;2022-12-24T02:28:36;85.63;;;48.38;;
35745;SDS011;21870;42.812;74.628;2022-12-24T02:31:23;76.90;;;46.60;;
35745;SDS011;21870;42.812;74.628;2022-12-24T02:36:43;88.57;;;48.10;;
35745;SDS011;21870;42.812;74.628;2022-12-24T02:39:22;123.78;;;71.78;;
35745;SDS011;21870;42.812;74.628;2022-12-24T02:41:54;103.07;;;59.08;;
35745;SDS011;21870;42.812;74.628;2022-12-24T02:44:40;123.82;;;68.82;;
35745;SDS011;21870;42.812;74.628;2022-12-24T02:47:21;121.72;;;65.82;;
35745;SDS011;21870;42.812;74.628;2022-12-24T02:49:50;120.38;;;67.72;;
35745;SDS011;21870;42.812;74.628;2022-12-24T02:55:00;134.52;;;70.85;;
35745;SDS011;21870;42.812;74.628;2022-12-24T02:57:38;113.03;;;61.95;;
35745;SDS011;21870;42.812;74.628;2022-12-24T03:00:18;112.60;;;58.42;;
35745;SDS011;21870;42.812;74.628;2022-12-24T03:05:25;130.23;;;67.38;;
35745;SDS011;21870;42.812;74.628;2022-12-24T03:08:13;112.28;;;61.78;;
35745;SDS011;21870;42.812;74.628;2022-12-24T03:10:55;88.82;;;54.92;;
35745;SDS011;21870;42.812;74.628;2022-12-24T03:13:26;94.32;;;54.03;;
35745;SDS011;21870;42.812;74.628;2022-12-24T03:15:53;135.07;;;71.05;;
35745;SDS011;21870;42.812;74.628;2022-12-24T03:18:23;124.15;;;66.75;;
35745;SDS011;21870;42.812;74.628;2022-12-24T03:21:08;118.78;;;70.63;;
35745;SDS011;21870;42.812;74.628;2022-12-24T03:23:57;100.50;;;59.45;;
35745;SDS011;21870;42.812;74.628;2022-12-24T03:26:23;101.38;;;60.28;;
35745;SDS011;21870;42.812;74.628;2022-12-24T03:28:51;126.45;;;76.45;;
35745;SDS011;21870;42.812;74.628;2022-12-24T03:31:17;131.93;;;75.50;;
35745;SDS011;21870;42.812;74.628;2022-12-24T03:33:43;131.65;;;77.07;;
35745;SDS011;21870;42.812;74.628;2022-12-24T03:36:10;75.57;;;46.65;;
35745;SDS011;21870;42.812;74.628;2022-12-24T03:38:36;80.53;;;44.38;;
35745;SDS011;21870;42.812;74.628;2022-12-24T03:41:02;173.10;;;103.03;;
35745;SDS011;21870;42.812;74.628;2022-12-24T03:43:29;90.07;;;55.85;;
35745;SDS011;21870;42.812;74.628;2022-12-24T03:45:55;92.28;;;58.13;;
35745;SDS011;21870;42.812;74.628;2022-12-24T03:48:21;175.30;;;101.80;;
35745;SDS011;21870;42.812;74.628;2022-12-24T03:50:47;141.18;;;85.50;;
35745;SDS011;21870;42.812;74.628;2022-12-24T03:53:14;127.72;;;71.82;;
35745;SDS011;21870;42.812;74.628;2022-12-24T03:55:40;181.55;;;103.82;;
35745;SDS011;21870;42.812;74.628;2022-12-24T03:58:06;192.45;;;104.78;;
35745;SDS011;21870;42.812;74.628;2022-12-24T04:00:32;214.82;;;112.38;;
35745;SDS011;21870;42.812;74.628;2022-12-24T04:02:58;156.35;;;78.63;;
35745;SDS011;21870;42.812;74.628;2022-12-24T04:05:24;90.25;;;51.88;;
35745;SDS011;21870;42.812;74.628;2022-12-24T04:07:50;126.63;;;68.97;;
35745;SDS011;21870;42.812;74.628;2022-12-24T04:10:17;89.28;;;53.28;;
35745;SDS011;21870;42.812;74.628;2022-12-24T04:12:43;101.70;;;57.90;;
35745;SDS011;21870;42.812;74.628;2022-12-24T04:15:09;73.65;;;47.65;;
35745;SDS011;21870;42.812;74.628;2022-12-24T04:17:35;88.53;;;56.42;;
35745;SDS011;21870;42.812;74.628;2022-12-24T04:20:01;108.28;;;67.93;;
35745;SDS011;21870;42.812;74.628;2022-12-24T04:22:28;127.88;;;82.03;;
35745;SDS011;21870;42.812;74.628;2022-12-24T04:24:54;133.73;;;85.13;;
35745;SDS011;21870;42.812;74.628;2022-12-24T04:27:20;124.40;;;79.05;;
35745;SDS011;21870;42.812;74.628;2022-12-24T04:29:46;124.15;;;81.82;;
35745;SDS011;21870;42.812;74.628;2022-12-24T04:32:13;141.88;;;88.20;;
35745;SDS011;21870;42.812;74.628;2022-12-24T04:34:39;150.15;;;97.05;;
35745;SDS011;21870;42.812;74.628;2022-12-24T04:37:05;157.02;;;100.82;;
35745;SDS011;21870;42.812;74.628;2022-12-24T04:39:31;154.88;;;97.82;;
35745;SDS011;21870;42.812;74.628;2022-12-24T04:42:00;151.30;;;101.05;;
35745;SDS011;21870;42.812;74.628;2022-12-24T04:44:26;155.50;;;101.43;;
35745;SDS011;21870;42.812;74.628;2022-12-24T04:46:52;153.95;;;99.50;;
35745;SDS011;21870;42.812;74.628;2022-12-24T04:49:18;149.82;;;99.95;;
35745;SDS011;21870;42.812;74.628;2022-12-24T04:51:44;143.35;;;94.97;;
35745;SDS011;21870;42.812;74.628;2022-12-24T04:54:10;150.48;;;98.28;;
35745;SDS011;21870;42.812;74.628;2022-12-24T04:56:36;150.93;;;93.85;;
35745;SDS011;21870;42.812;74.628;2022-12-24T04:59:02;147.00;;;94.35;;
35745;SDS011;21870;42.812;74.628;2022-12-24T05:01:29;136.20;;;87.43;;
35745;SDS011;21870;42.812;74.628;2022-12-24T05:03:57;125.97;;;83.10;;
35745;SDS011;21870;42.812;74.628;2022-12-24T05:06:24;125.72;;;80.25;;
35745;SDS011;21870;42.812;74.628;2022-12-24T05:08:53;125.32;;;80.03;;
35745;SDS011;21870;42.812;74.628;2022-12-24T05:11:20;105.38;;;73.35;;
35745;SDS011;21870;42.812;74.628;2022-12-24T05:13:47;93.82;;;67.50;;
35745;SDS011;21870;42.812;74.628;2022-12-24T05:16:14;92.28;;;62.47;;
35745;SDS011;21870;42.812;74.628;2022-12-24T05:18:41;100.97;;;65.95;;
35745;SDS011;21870;42.812;74.628;2022-12-24T05:21:09;81.90;;;57.05;;
35745;SDS011;21870;42.812;74.628;2022-12-24T05:23:37;52.33;;;37.22;;
35745;SDS011;21870;42.812;74.628;2022-12-24T05:28:57;61.78;;;42.85;;
35745;SDS011;21870;42.812;74.628;2022-12-24T05:31:25;57.75;;;40.22;;
35745;SDS011;21870;42.812;74.628;2022-12-24T05:33:52;52.75;;;36.55;;
35745;SDS011;21870;42.812;74.628;2022-12-24T05:36:19;50.90;;;35.20;;
35745;SDS011;21870;42.812;74.628;2022-12-24T05:38:45;56.90;;;38.30;;
35745;SDS011;21870;42.812;74.628;2022-12-24T05:41:12;53.13;;;36.83;;
35745;SDS011;21870;42.812;74.628;2022-12-24T05:43:38;44.70;;;29.63;;
35745;SDS011;21870;42.812;74.628;2022-12-24T05:46:05;34.80;;;22.55;;
35745;SDS011;21870;42.812;74.628;2022-12-24T05:48:33;49.92;;;36.58;;
35745;SDS011;21870;42.812;74.628;2022-12-24T05:51:02;111.70;;;75.03;;
35745;SDS011;21870;42.812;74.628;2022-12-24T05:53:30;90.15;;;63.72;;
35745;SDS011;21870;42.812;74.628;2022-12-24T05:56:03;116.65;;;73.75;;
35745;SDS011;21870;42.812;74.628;2022-12-24T05:58:31;117.22;;;72.60;;
35745;SDS011;21870;42.812;74.628;2022-12-24T06:00:57;97.45;;;63.05;;
35745;SDS011;21870;42.812;74.628;2022-12-24T06:03:24;92.07;;;62.20;;
35745;SDS011;21870;42.812;74.628;2022-12-24T06:05:58;91.22;;;60.03;;
35745;SDS011;21870;42.812;74.628;2022-12-24T06:08:25;101.88;;;62.97;;
35745;SDS011;21870;42.812;74.628;2022-12-24T06:10:56;104.32;;;66.25;;
35745;SDS011;21870;42.812;74.628;2022-12-24T06:13:23;100.30;;;66.25;;
35745;SDS011;21870;42.812;74.628;2022-12-24T06:15:50;117.50;;;71.07;;
35745;SDS011;21870;42.812;74.628;2022-12-24T06:18:19;74.03;;;45.15;;
35745;SDS011;21870;42.812;74.628;2022-12-24T06:20:48;115.82;;;68.60;;
35745;SDS011;21870;42.812;74.628;2022-12-24T06:23:18;155.93;;;91.38;;
35745;SDS011;21870;42.812;74.628;2022-12-24T06:25:45;159.80;;;95.07;;
35745;SDS011;21870;42.812;74.628;2022-12-24T06:28:11;145.68;;;86.88;;
35745;SDS011;21870;42.812;74.628;2022-12-24T06:30:38;159.20;;;94.45;;
35745;SDS011;21870;42.812;74.628;2022-12-24T06:33:04;160.48;;;86.78;;
35745;SDS011;21870;42.812;74.628;2022-12-24T06:35:31;150.02;;;87.35;;
35745;SDS011;21870;42.812;74.628;2022-12-24T06:37:57;158.45;;;94.80;;
35745;SDS011;21870;42.812;74.628;2022-12-24T06:40:24;181.73;;;104.25;;
35745;SDS011;21870;42.812;74.628;2022-12-24T06:42:51;180.63;;;106.28;;
35745;SDS011;21870;42.812;74.628;2022-12-24T06:45:17;141.07;;;81.28;;
35745;SDS011;21870;42.812;74.628;2022-12-24T06:47:43;122.43;;;74.25;;
35745;SDS011;21870;42.812;74.628;2022-12-24T06:50:09;131.50;;;80.18;;
35745;SDS011;21870;42.812;74.628;2022-12-24T06:52:35;139.65;;;83.53;;
35745;SDS011;21870;42.812;74.628;2022-12-24T06:55:02;161.15;;;94.05;;
35745;SDS011;21870;42.812;74.628;2022-12-24T06:57:28;160.68;;;98.15;;
35745;SDS011;21870;42.812;74.628;2022-12-24T06:59:56;166.60;;;101.53;;
35745;SDS011;21870;42.812;74.628;2022-12-24T07:02:23;175.57;;;102.13;;
35745;SDS011;21870;42.812;74.628;2022-12-24T07:04:49;170.63;;;104.03;;
35745;SDS011;21870;42.812;74.628;2022-12-24T07:07:18;197.68;;;114.93;;
35745;SDS011;21870;42.812;74.628;2022-12-24T07:09:44;191.48;;;113.50;;
35745;SDS011;21870;42.812;74.628;2022-12-24T07:12:10;208.77;;;122.28;;
35745;SDS011;21870;42.812;74.628;2022-12-24T07:14:36;222.13;;;130.10;;
35745;SDS011;21870;42.812;74.628;2022-12-24T07:17:02;266.65;;;158.00;;
35745;SDS011;21870;42.812;74.628;2022-12-24T07:19:28;259.70;;;154.02;;
35745;SDS011;21870;42.812;74.628;2022-12-24T07:21:54;268.20;;;165.43;;
35745;SDS011;21870;42.812;74.628;2022-12-24T07:24:20;290.90;;;172.38;;
35745;SDS011;21870;42.812;74.628;2022-12-24T07:26:46;307.65;;;185.55;;
35745;SDS011;21870;42.812;74.628;2022-12-24T07:29:12;313.75;;;185.70;;
35745;SDS011;21870;42.812;74.628;2022-12-24T07:31:38;324.80;;;193.65;;
35745;SDS011;21870;42.812;74.628;2022-12-24T07:34:04;326.63;;;201.65;;
35745;SDS011;21870;42.812;74.628;2022-12-24T07:36:31;344.35;;;207.68;;
35745;SDS011;21870;42.812;74.628;2022-12-24T07:38:57;326.58;;;205.18;;
35745;SDS011;21870;42.812;74.628;2022-12-24T07:41:23;324.60;;;201.85;;
35745;SDS011;21870;42.812;74.628;2022-12-24T07:43:49;322.17;;;202.55;;
35745;SDS011;21870;42.812;74.628;2022-12-24T07:46:15;337.08;;;204.40;;
35745;SDS011;21870;42.812;74.628;2022-12-24T07:48:41;329.55;;;196.77;;
35745;SDS011;21870;42.812;74.628;2022-12-24T07:51:07;323.15;;;197.73;;
35745;SDS011;21870;42.812;74.628;2022-12-24T07:53:33;310.63;;;191.93;;
35745;SDS011;21870;42.812;74.628;2022-12-24T07:55:59;305.30;;;189.77;;
35745;SDS011;21870;42.812;74.628;2022-12-24T07:58:25;301.42;;;189.00;;
35745;SDS011;21870;42.812;74.628;2022-12-24T08:00:56;316.77;;;193.18;;
35745;SDS011;21870;42.812;74.628;2022-12-24T08:03:23;308.45;;;190.93;;
35745;SDS011;21870;42.812;74.628;2022-12-24T08:05:49;303.48;;;185.90;;
35745;SDS011;21870;42.812;74.628;2022-12-24T08:08:17;295.05;;;189.48;;
35745;SDS011;21870;42.812;74.628;2022-12-24T08:10:44;315.42;;;194.60;;
35745;SDS011;21870;42.812;74.628;2022-12-24T08:13:11;308.83;;;195.30;;
35745;SDS011;21870;42.812;74.628;2022-12-24T08:15:37;313.17;;;195.52;;
35745;SDS011;21870;42.812;74.628;2022-12-24T08:18:03;307.75;;;193.68;;
35745;SDS011;21870;42.812;74.628;2022-12-24T08:20:30;305.67;;;199.00;;
35745;SDS011;21870;42.812;74.628;2022-12-24T08:22:56;324.38;;;202.38;;
35745;SDS011;21870;42.812;74.628;2022-12-24T08:25:22;312.00;;;196.63;;
35745;SDS011;21870;42.812;74.628;2022-12-24T08:27:48;300.83;;;191.63;;
35745;SDS011;21870;42.812;74.628;2022-12-24T08:30:14;301.00;;;191.15;;
35745;SDS011;21870;42.812;74.628;2022-12-24T08:32:40;298.75;;;183.05;;
35745;SDS011;21870;42.812;74.628;2022-12-24T08:35:07;279.05;;;169.73;;
35745;SDS011;21870;42.812;74.628;2022-12-24T08:37:33;233.82;;;148.10;;
35745;SDS011;21870;42.812;74.628;2022-12-24T08:39:59;225.73;;;138.35;;
35745;SDS011;21870;42.812;74.628;2022-12-24T08:42:25;219.93;;;139.10;;
35745;SDS011;21870;42.812;74.628;2022-12-24T08:44:51;229.18;;;139.40;;
35745;SDS011;21870;42.812;74.628;2022-12-24T08:47:17;234.18;;;141.55;;
35745;SDS011;21870;42.812;74.628;2022-12-24T08:49:43;243.52;;;147.77;;
35745;SDS011;21870;42.812;74.628;2022-12-24T08:52:09;258.10;;;160.73;;
35745;SDS011;21870;42.812;74.628;2022-12-24T08:54:35;266.33;;;162.52;;
35745;SDS011;21870;42.812;74.628;2022-12-24T08:57:01;282.55;;;168.18;;
35745;SDS011;21870;42.812;74.628;2022-12-24T08:59:27;275.75;;;175.27;;
35745;SDS011;21870;42.812;74.628;2022-12-24T09:01:53;281.52;;;173.88;;
35745;SDS011;21870;42.812;74.628;2022-12-24T09:04:19;290.55;;;178.20;;
35745;SDS011;21870;42.812;74.628;2022-12-24T09:06:45;278.35;;;167.93;;
35745;SDS011;21870;42.812;74.628;2022-12-24T09:09:12;280.38;;;173.95;;
35745;SDS011;21870;42.812;74.628;2022-12-24T09:11:38;277.17;;;169.93;;
35745;SDS011;21870;42.812;74.628;2022-12-24T09:14:04;269.13;;;163.07;;
35745;SDS011;21870;42.812;74.628;2022-12-24T09:16:30;265.90;;;151.57;;
35745;SDS011;21870;42.812;74.628;2022-12-24T09:18:56;268.10;;;162.40;;
35745;SDS011;21870;42.812;74.628;2022-12-24T09:21:25;278.77;;;162.13;;
35745;SDS011;21870;42.812;74.628;2022-12-24T09:23:51;267.27;;;157.90;;
35745;SDS011;21870;42.812;74.628;2022-12-24T09:28:51;271.08;;;157.55;;
35745;SDS011;21870;42.812;74.628;2022-12-24T09:31:17;288.83;;;163.07;;
35745;SDS011;21870;42.812;74.628;2022-12-24T09:33:45;277.17;;;168.57;;
35745;SDS011;21870;42.812;74.628;2022-12-24T09:36:12;284.77;;;168.75;;
35745;SDS011;21870;42.812;74.628;2022-12-24T09:38:38;292.48;;;172.18;;
35745;SDS011;21870;42.812;74.628;2022-12-24T09:43:46;311.35;;;173.23;;
35745;SDS011;21870;42.812;74.628;2022-12-24T09:46:24;317.55;;;178.35;;
35745;SDS011;21870;42.812;74.628;2022-12-24T09:48:58;326.77;;;175.35;;
35745;SDS011;21870;42.812;74.628;2022-12-24T09:51:31;315.73;;;176.75;;
35745;SDS011;21870;42.812;74.628;2022-12-24T09:56:55;314.67;;;172.52;;
35745;SDS011;21870;42.812;74.628;2022-12-24T09:59:28;316.58;;;177.43;;
35745;SDS011;21870;42.812;74.628;2022-12-24T10:02:08;311.00;;;172.02;;
35745;SDS011;21870;42.812;74.628;2022-12-24T10:04:36;313.70;;;172.18;;
35745;SDS011;21870;42.812;74.628;2022-12-24T10:07:22;307.50;;;174.77;;
35745;SDS011;21870;42.812;74.628;2022-12-24T10:12:35;310.65;;;170.73;;
35745;SDS011;21870;42.812;74.628;2022-12-24T10:15:26;320.25;;;171.75;;
35745;SDS011;21870;42.812;74.628;2022-12-24T10:23:23;321.55;;;174.43;;
35745;SDS011;21870;42.812;74.628;2022-12-24T10:29:15;313.17;;;165.88;;
35745;SDS011;21870;42.812;74.628;2022-12-24T10:31:24;326.65;;;170.35;;
35745;SDS011;21870;42.812;74.628;2022-12-24T10:33:56;306.65;;;165.27;;
35745;SDS011;21870;42.812;74.628;2022-12-24T10:36:26;305.50;;;164.32;;
35745;SDS011;21870;42.812;74.628;2022-12-24T10:38:54;319.13;;;170.75;;
35745;SDS011;21870;42.812;74.628;2022-12-24T10:41:20;313.38;;;168.65;;
35745;SDS011;21870;42.812;74.628;2022-12-24T10:43:47;327.83;;;169.45;;
35745;SDS011;21870;42.812;74.628;2022-12-24T10:48:49;331.38;;;170.00;;
35745;SDS011;21870;42.812;74.628;2022-12-24T10:51:31;311.20;;;170.93;;
35745;SDS011;21870;42.812;74.628;2022-12-24T10:54:18;334.40;;;171.70;;
35745;SDS011;21870;42.812;74.628;2022-12-24T10:57:04;317.83;;;174.48;;
35745;SDS011;21870;42.812;74.628;2022-12-24T11:02:46;347.45;;;177.32;;
35745;SDS011;21870;42.812;74.628;2022-12-24T11:07:59;337.20;;;177.07;;
35745;SDS011;21870;42.812;74.628;2022-12-24T11:10:27;348.33;;;175.32;;
35745;SDS011;21870;42.812;74.628;2022-12-24T11:12:56;351.40;;;181.85;;
35745;SDS011;21870;42.812;74.628;2022-12-24T11:15:23;365.98;;;187.70;;
35745;SDS011;21870;42.812;74.628;2022-12-24T11:17:58;348.95;;;183.48;;
35745;SDS011;21870;42.812;74.628;2022-12-24T11:20:29;353.40;;;180.57;;
35745;SDS011;21870;42.812;74.628;2022-12-24T11:22:58;355.98;;;184.73;;
35745;SDS011;21870;42.812;74.628;2022-12-24T11:25:29;351.85;;;182.18;;
35745;SDS011;21870;42.812;74.628;2022-12-24T11:28:09;364.38;;;191.15;;
35745;SDS011;21870;42.812;74.628;2022-12-24T11:30:56;359.23;;;185.15;;
35745;SDS011;21870;42.812;74.628;2022-12-24T11:33:23;348.67;;;182.32;;
35745;SDS011;21870;42.812;74.628;2022-12-24T11:35:51;360.33;;;182.68;;
35745;SDS011;21870;42.812;74.628;2022-12-24T11:38:20;351.70;;;184.77;;
35745;SDS011;21870;42.812;74.628;2022-12-24T11:40:55;363.80;;;191.05;;
35745;SDS011;21870;42.812;74.628;2022-12-24T11:43:26;345.52;;;178.80;;
35745;SDS011;21870;42.812;74.628;2022-12-24T11:46:17;341.42;;;180.48;;
35745;SDS011;21870;42.812;74.628;2022-12-24T11:48:44;362.42;;;190.48;;
35745;SDS011;21870;42.812;74.628;2022-12-24T11:51:26;336.77;;;180.77;;
35745;SDS011;21870;42.812;74.628;2022-12-24T11:53:57;354.33;;;180.13;;
35745;SDS011;21870;42.812;74.628;2022-12-24T11:59:31;368.00;;;190.20;;
35745;SDS011;21870;42.812;74.628;2022-12-24T12:04:53;390.23;;;199.43;;
35745;SDS011;21870;42.812;74.628;2022-12-24T12:07:44;396.95;;;207.90;;
35745;SDS011;21870;42.812;74.628;2022-12-24T12:13:34;402.65;;;211.75;;
35745;SDS011;21870;42.812;74.628;2022-12-24T12:15:48;386.27;;;202.13;;
35745;SDS011;21870;42.812;74.628;2022-12-24T12:18:23;377.45;;;199.07;;
35745;SDS011;21870;42.812;74.628;2022-12-24T12:20:59;344.45;;;182.55;;
35745;SDS011;21870;42.812;74.628;2022-12-24T12:23:41;347.83;;;183.38;;
35745;SDS011;21870;42.812;74.628;2022-12-24T12:28:53;366.85;;;196.25;;
35745;SDS011;21870;42.812;74.628;2022-12-24T12:31:48;401.02;;;212.07;;
35745;SDS011;21870;42.812;74.628;2022-12-24T12:34:20;358.98;;;193.98;;
35745;SDS011;21870;42.812;74.628;2022-12-24T12:37:07;371.08;;;200.73;;
35745;SDS011;21870;42.812;74.628;2022-12-24T12:39:57;367.48;;;198.32;;
35745;SDS011;21870;42.812;74.628;2022-12-24T12:42:27;371.20;;;199.55;;
35745;SDS011;21870;42.812;74.628;2022-12-24T12:45:12;380.83;;;197.82;;
35745;SDS011;21870;42.812;74.628;2022-12-24T12:51:13;383.55;;;187.57;;
35745;SDS011;21870;42.812;74.628;2022-12-24T12:56:42;384.02;;;201.82;;
35745;SDS011;21870;42.812;74.628;2022-12-24T13:10:21;418.55;;;229.18;;
35745;SDS011;21870;42.812;74.628;2022-12-24T13:15:49;474.80;;;260.42;;
35745;SDS011;21870;42.812;74.628;2022-12-24T13:21:32;427.90;;;230.10;;
35745;SDS011;21870;42.812;74.628;2022-12-24T13:24:06;433.98;;;226.90;;
35745;SDS011;21870;42.812;74.628;2022-12-24T13:34:50;426.50;;;231.98;;
35745;SDS011;21870;42.812;74.628;2022-12-24T13:40:15;443.73;;;231.70;;
35745;SDS011;21870;42.812;74.628;2022-12-24T13:47:55;464.65;;;247.10;;
35745;SDS011;21870;42.812;74.628;2022-12-24T13:51:16;438.58;;;225.70;;
35745;SDS011;21870;42.812;74.628;2022-12-24T13:53:20;422.67;;;217.90;;
35745;SDS011;21870;42.812;74.628;2022-12-24T13:58:27;415.65;;;216.85;;
35745;SDS011;21870;42.812;74.628;2022-12-24T14:01:00;453.27;;;232.85;;
35745;SDS011;21870;42.812;74.628;2022-12-24T14:12:12;418.23;;;218.57;;
35745;SDS011;21870;42.812;74.628;2022-12-24T14:16:57;428.10;;;236.25;;
35745;SDS011;21870;42.812;74.628;2022-12-24T14:19:32;428.55;;;230.15;;
35745;SDS011;21870;42.812;74.628;2022-12-24T14:24:56;455.77;;;241.23;;
35745;SDS011;21870;42.812;74.628;2022-12-24T14:30:22;440.42;;;239.10;;
35745;SDS011;21870;42.812;74.628;2022-12-24T14:32:49;454.67;;;248.77;;
35745;SDS011;21870;42.812;74.628;2022-12-24T14:35:25;485.02;;;263.20;;
35745;SDS011;21870;42.812;74.628;2022-12-24T14:40:29;485.48;;;255.50;;
35745;SDS011;21870;42.812;74.628;2022-12-24T14:45:48;432.48;;;228.18;;
35745;SDS011;21870;42.812;74.628;2022-12-24T15:02:28;414.98;;;196.75;;
35745;SDS011;21870;42.812;74.628;2022-12-24T15:05:20;461.65;;;217.88;;
35745;SDS011;21870;42.812;74.628;2022-12-24T15:07:59;484.75;;;225.52;;
35745;SDS011;21870;42.812;74.628;2022-12-24T15:10:37;490.05;;;225.50;;
35745;SDS011;21870;42.812;74.628;2022-12-24T15:13:20;474.60;;;223.82;;
35745;SDS011;21870;42.812;74.628;2022-12-24T15:16:02;439.00;;;213.68;;
35745;SDS011;21870;42.812;74.628;2022-12-24T15:18:38;458.33;;;216.63;;
35745;SDS011;21870;42.812;74.628;2022-12-24T15:21:13;470.50;;;231.30;;
35745;SDS011;21870;42.812;74.628;2022-12-24T15:23:45;495.00;;;232.00;;
35745;SDS011;21870;42.812;74.628;2022-12-24T15:26:15;479.80;;;231.07;;
35745;SDS011;21870;42.812;74.628;2022-12-24T15:28:49;481.27;;;230.93;;
35745;SDS011;21870;42.812;74.628;2022-12-24T15:31:17;478.60;;;238.60;;
35745;SDS011;21870;42.812;74.628;2022-12-24T15:33:45;484.40;;;238.38;;
35745;SDS011;21870;42.812;74.628;2022-12-24T15:36:13;471.23;;;227.98;;
35745;SDS011;21870;42.812;74.628;2022-12-24T15:38:41;438.73;;;229.63;;
35745;SDS011;21870;42.812;74.628;2022-12-24T15:41:19;453.50;;;232.88;;
35745;SDS011;21870;42.812;74.628;2022-12-24T15:43:48;464.52;;;240.05;;
35745;SDS011;21870;42.812;74.628;2022-12-24T15:46:18;473.55;;;246.43;;
35745;SDS011;21870;42.812;74.628;2022-12-24T15:48:45;497.02;;;261.02;;
35745;SDS011;21870;42.812;74.628;2022-12-24T15:51:19;501.08;;;252.77;;
35745;SDS011;21870;42.812;74.628;2022-12-24T15:53:58;488.30;;;252.88;;
35745;SDS011;21870;42.812;74.628;2022-12-24T15:56:39;484.23;;;245.15;;
35745;SDS011;21870;42.812;74.628;2022-12-24T16:01:42;485.17;;;239.73;;
35745;SDS011;21870;42.812;74.628;2022-12-24T16:04:11;510.45;;;262.83;;
35745;SDS011;21870;42.812;74.628;2022-12-24T16:06:55;497.00;;;251.70;;
35745;SDS011;21870;42.812;74.628;2022-12-24T16:12:01;459.42;;;236.68;;
35745;SDS011;21870;42.812;74.628;2022-12-24T16:14:28;474.20;;;247.50;;
35745;SDS011;21870;42.812;74.628;2022-12-24T16:16:56;492.20;;;253.65;;
35745;SDS011;21870;42.812;74.628;2022-12-24T16:21:51;484.88;;;243.20;;
35745;SDS011;21870;42.812;74.628;2022-12-24T16:24:23;488.85;;;249.70;;
35745;SDS011;21870;42.812;74.628;2022-12-24T16:26:52;477.52;;;247.45;;
35745;SDS011;21870;42.812;74.628;2022-12-24T16:29:18;469.83;;;233.20;;
35745;SDS011;21870;42.812;74.628;2022-12-24T16:31:45;477.48;;;240.07;;
35745;SDS011;21870;42.812;74.628;2022-12-24T16:34:18;450.73;;;229.10;;
35745;SDS011;21870;42.812;74.628;2022-12-24T16:36:48;439.08;;;230.35;;